< < Back
Terminal Aerodrome Forecast


Current Version              Previous Versions:   1  2  3  4  5  6  7  8  9  

Terminal Aerodrome Forecast

262
FTUS44 KBMX 242344 RRA
TAFTCL
TAF
KTCL 242344Z 2500/2524 13008KT P6SM BKN060
     FM250800 15010KT P6SM OVC015
      TEMPO 2511/2515 4SM BR OVC007
     FM251800 15006KT 5SM SHRA VCTS SCT020 BKN040CB=

Latest METAR

434
SAUS70 KWBC 250900 RRA
MTRTCL
METAR KTCL 250853Z AUTO VRB04KT 8SM FEW046 BKN120 22/21 A3012 RMK AO2
SLP196 T02220206 53001


USA.gov is the U.S. government's official web portal to all federal, state and local government web resources and services.